sensor_id;sensor_type;location;lat;lon;timestamp;P1;durP1;ratioP1;P2;durP2;ratioP2
72797;SDS011;61084;55.816;37.036;2022-07-10T00:01:25;17.33;;;10.23;;
72797;SDS011;61084;55.816;37.036;2022-07-10T00:03:51;15.85;;;9.65;;
72797;SDS011;61084;55.816;37.036;2022-07-10T00:06:17;17.60;;;10.20;;
72797;SDS011;61084;55.816;37.036;2022-07-10T00:08:43;14.13;;;9.98;;
72797;SDS011;61084;55.816;37.036;2022-07-10T00:11:09;14.48;;;9.80;;
72797;SDS011;61084;55.816;37.036;2022-07-10T00:13:35;12.45;;;9.38;;
72797;SDS011;61084;55.816;37.036;2022-07-10T00:16:00;14.70;;;10.07;;
72797;SDS011;61084;55.816;37.036;2022-07-10T00:18:27;12.68;;;9.43;;
72797;SDS011;61084;55.816;37.036;2022-07-10T00:20:54;14.82;;;9.65;;
72797;SDS011;61084;55.816;37.036;2022-07-10T00:23:19;12.32;;;9.77;;
72797;SDS011;61084;55.816;37.036;2022-07-10T00:25:45;19.38;;;10.32;;
72797;SDS011;61084;55.816;37.036;2022-07-10T00:28:11;13.40;;;10.00;;
72797;SDS011;61084;55.816;37.036;2022-07-10T00:30:37;18.75;;;12.23;;
72797;SDS011;61084;55.816;37.036;2022-07-10T00:33:03;14.23;;;10.90;;
72797;SDS011;61084;55.816;37.036;2022-07-10T00:35:29;17.15;;;11.68;;
72797;SDS011;61084;55.816;37.036;2022-07-10T00:37:55;13.43;;;10.10;;
72797;SDS011;61084;55.816;37.036;2022-07-10T00:40:21;15.95;;;11.45;;
72797;SDS011;61084;55.816;37.036;2022-07-10T00:42:47;17.95;;;11.43;;
72797;SDS011;61084;55.816;37.036;2022-07-10T00:45:13;19.98;;;12.52;;
72797;SDS011;61084;55.816;37.036;2022-07-10T00:47:39;15.35;;;11.20;;
72797;SDS011;61084;55.816;37.036;2022-07-10T00:50:05;12.85;;;9.25;;
72797;SDS011;61084;55.816;37.036;2022-07-10T00:52:32;13.93;;;9.90;;
72797;SDS011;61084;55.816;37.036;2022-07-10T00:55:04;14.55;;;10.98;;
72797;SDS011;61084;55.816;37.036;2022-07-10T00:57:31;14.30;;;10.15;;
72797;SDS011;61084;55.816;37.036;2022-07-10T01:02:24;18.08;;;11.52;;
72797;SDS011;61084;55.816;37.036;2022-07-10T01:07:17;15.88;;;10.43;;
72797;SDS011;61084;55.816;37.036;2022-07-10T01:09:42;16.42;;;10.65;;
72797;SDS011;61084;55.816;37.036;2022-07-10T01:12:08;14.68;;;9.90;;
72797;SDS011;61084;55.816;37.036;2022-07-10T01:14:37;15.77;;;11.13;;
72797;SDS011;61084;55.816;37.036;2022-07-10T01:17:06;14.85;;;10.82;;
72797;SDS011;61084;55.816;37.036;2022-07-10T01:19:34;16.13;;;12.07;;
72797;SDS011;61084;55.816;37.036;2022-07-10T01:21:59;16.38;;;9.90;;
72797;SDS011;61084;55.816;37.036;2022-07-10T01:24:25;14.15;;;11.07;;
72797;SDS011;61084;55.816;37.036;2022-07-10T01:26:51;20.45;;;12.35;;
72797;SDS011;61084;55.816;37.036;2022-07-10T01:29:17;19.27;;;11.82;;
72797;SDS011;61084;55.816;37.036;2022-07-10T01:31:43;18.20;;;13.27;;
72797;SDS011;61084;55.816;37.036;2022-07-10T01:34:09;15.60;;;11.48;;
72797;SDS011;61084;55.816;37.036;2022-07-10T01:36:35;19.98;;;11.90;;
72797;SDS011;61084;55.816;37.036;2022-07-10T01:39:02;22.35;;;13.70;;
72797;SDS011;61084;55.816;37.036;2022-07-10T01:41:29;17.50;;;12.27;;
72797;SDS011;61084;55.816;37.036;2022-07-10T01:43:54;16.67;;;12.32;;
72797;SDS011;61084;55.816;37.036;2022-07-10T01:46:20;15.85;;;12.15;;
72797;SDS011;61084;55.816;37.036;2022-07-10T01:48:46;19.70;;;14.07;;
72797;SDS011;61084;55.816;37.036;2022-07-10T01:51:12;16.25;;;13.48;;
72797;SDS011;61084;55.816;37.036;2022-07-10T01:53:38;15.35;;;12.07;;
72797;SDS011;61084;55.816;37.036;2022-07-10T01:56:05;17.65;;;11.55;;
72797;SDS011;61084;55.816;37.036;2022-07-10T01:58:33;22.90;;;14.07;;
72797;SDS011;61084;55.816;37.036;2022-07-10T02:01:00;19.52;;;13.73;;
72797;SDS011;61084;55.816;37.036;2022-07-10T02:03:27;19.80;;;13.50;;
72797;SDS011;61084;55.816;37.036;2022-07-10T02:06:11;19.52;;;12.25;;
72797;SDS011;61084;55.816;37.036;2022-07-10T02:08:36;18.45;;;12.60;;
72797;SDS011;61084;55.816;37.036;2022-07-10T02:11:02;16.50;;;12.25;;
72797;SDS011;61084;55.816;37.036;2022-07-10T02:13:28;18.52;;;11.70;;
72797;SDS011;61084;55.816;37.036;2022-07-10T02:15:54;17.85;;;11.45;;
72797;SDS011;61084;55.816;37.036;2022-07-10T02:20:47;16.75;;;11.77;;
72797;SDS011;61084;55.816;37.036;2022-07-10T02:23:13;14.32;;;10.15;;
72797;SDS011;61084;55.816;37.036;2022-07-10T02:25:38;14.13;;;10.30;;
72797;SDS011;61084;55.816;37.036;2022-07-10T02:28:04;14.05;;;9.85;;
72797;SDS011;61084;55.816;37.036;2022-07-10T02:30:30;15.30;;;9.93;;
72797;SDS011;61084;55.816;37.036;2022-07-10T02:32:56;11.30;;;9.57;;
72797;SDS011;61084;55.816;37.036;2022-07-10T02:35:22;13.32;;;9.95;;
72797;SDS011;61084;55.816;37.036;2022-07-10T02:37:48;13.20;;;9.80;;
72797;SDS011;61084;55.816;37.036;2022-07-10T02:40:14;14.60;;;9.20;;
72797;SDS011;61084;55.816;37.036;2022-07-10T02:42:40;12.93;;;9.60;;
72797;SDS011;61084;55.816;37.036;2022-07-10T02:45:06;12.30;;;9.00;;
72797;SDS011;61084;55.816;37.036;2022-07-10T02:49:58;11.70;;;9.75;;
72797;SDS011;61084;55.816;37.036;2022-07-10T02:52:24;15.40;;;10.98;;
72797;SDS011;61084;55.816;37.036;2022-07-10T02:54:49;12.77;;;9.02;;
72797;SDS011;61084;55.816;37.036;2022-07-10T02:57:16;14.25;;;9.30;;
72797;SDS011;61084;55.816;37.036;2022-07-10T02:59:42;14.95;;;10.00;;
72797;SDS011;61084;55.816;37.036;2022-07-10T03:02:07;13.43;;;8.85;;
72797;SDS011;61084;55.816;37.036;2022-07-10T03:04:33;11.48;;;9.35;;
72797;SDS011;61084;55.816;37.036;2022-07-10T03:06:59;11.70;;;9.02;;
72797;SDS011;61084;55.816;37.036;2022-07-10T03:09:25;15.82;;;9.00;;
72797;SDS011;61084;55.816;37.036;2022-07-10T03:11:51;17.70;;;9.88;;
72797;SDS011;61084;55.816;37.036;2022-07-10T03:14:17;10.35;;;8.93;;
72797;SDS011;61084;55.816;37.036;2022-07-10T03:16:43;10.98;;;8.77;;
72797;SDS011;61084;55.816;37.036;2022-07-10T03:19:08;11.38;;;8.60;;
72797;SDS011;61084;55.816;37.036;2022-07-10T03:21:34;16.50;;;10.25;;
72797;SDS011;61084;55.816;37.036;2022-07-10T03:24:00;14.38;;;10.40;;
72797;SDS011;61084;55.816;37.036;2022-07-10T03:26:26;14.20;;;8.77;;
72797;SDS011;61084;55.816;37.036;2022-07-10T03:28:55;12.23;;;9.68;;
72797;SDS011;61084;55.816;37.036;2022-07-10T03:33:46;9.57;;;8.18;;
72797;SDS011;61084;55.816;37.036;2022-07-10T03:36:12;15.20;;;8.57;;
72797;SDS011;61084;55.816;37.036;2022-07-10T03:38:41;11.77;;;8.10;;
72797;SDS011;61084;55.816;37.036;2022-07-10T03:41:07;10.73;;;8.20;;
72797;SDS011;61084;55.816;37.036;2022-07-10T03:43:33;11.20;;;8.18;;
72797;SDS011;61084;55.816;37.036;2022-07-10T03:48:24;11.18;;;8.32;;
72797;SDS011;61084;55.816;37.036;2022-07-10T03:50:50;11.93;;;7.97;;
72797;SDS011;61084;55.816;37.036;2022-07-10T03:55:42;13.25;;;8.75;;
72797;SDS011;61084;55.816;37.036;2022-07-10T03:58:08;10.93;;;8.70;;
72797;SDS011;61084;55.816;37.036;2022-07-10T04:00:34;10.27;;;7.85;;
72797;SDS011;61084;55.816;37.036;2022-07-10T04:03:01;11.68;;;7.45;;
72797;SDS011;61084;55.816;37.036;2022-07-10T04:05:29;12.75;;;8.30;;
72797;SDS011;61084;55.816;37.036;2022-07-10T04:07:55;14.25;;;8.70;;
72797;SDS011;61084;55.816;37.036;2022-07-10T04:10:25;12.15;;;7.82;;
72797;SDS011;61084;55.816;37.036;2022-07-10T04:12:51;11.50;;;9.52;;
72797;SDS011;61084;55.816;37.036;2022-07-10T04:15:17;10.63;;;8.55;;
72797;SDS011;61084;55.816;37.036;2022-07-10T04:17:43;12.60;;;8.05;;
72797;SDS011;61084;55.816;37.036;2022-07-10T04:20:09;10.07;;;8.15;;
72797;SDS011;61084;55.816;37.036;2022-07-10T04:22:36;11.13;;;9.70;;
72797;SDS011;61084;55.816;37.036;2022-07-10T04:25:02;12.40;;;9.52;;
72797;SDS011;61084;55.816;37.036;2022-07-10T04:27:28;12.25;;;8.60;;
72797;SDS011;61084;55.816;37.036;2022-07-10T04:29:54;12.02;;;9.40;;
72797;SDS011;61084;55.816;37.036;2022-07-10T04:32:20;10.75;;;8.90;;
72797;SDS011;61084;55.816;37.036;2022-07-10T04:34:46;10.10;;;8.45;;
72797;SDS011;61084;55.816;37.036;2022-07-10T04:37:12;12.82;;;9.05;;
72797;SDS011;61084;55.816;37.036;2022-07-10T04:39:38;13.68;;;8.77;;
72797;SDS011;61084;55.816;37.036;2022-07-10T04:44:31;10.60;;;8.18;;
72797;SDS011;61084;55.816;37.036;2022-07-10T04:46:57;11.70;;;7.85;;
72797;SDS011;61084;55.816;37.036;2022-07-10T04:49:23;11.30;;;8.00;;
72797;SDS011;61084;55.816;37.036;2022-07-10T04:51:50;12.57;;;8.60;;
72797;SDS011;61084;55.816;37.036;2022-07-10T04:54:16;12.65;;;9.55;;
72797;SDS011;61084;55.816;37.036;2022-07-10T04:56:41;12.20;;;9.25;;
72797;SDS011;61084;55.816;37.036;2022-07-10T04:59:07;11.98;;;9.30;;
72797;SDS011;61084;55.816;37.036;2022-07-10T05:01:34;9.77;;;8.02;;
72797;SDS011;61084;55.816;37.036;2022-07-10T05:04:00;8.60;;;7.25;;
72797;SDS011;61084;55.816;37.036;2022-07-10T05:06:26;11.75;;;8.40;;
72797;SDS011;61084;55.816;37.036;2022-07-10T05:08:52;10.32;;;8.90;;
72797;SDS011;61084;55.816;37.036;2022-07-10T05:11:18;11.18;;;8.65;;
72797;SDS011;61084;55.816;37.036;2022-07-10T05:13:44;9.27;;;7.40;;
72797;SDS011;61084;55.816;37.036;2022-07-10T05:16:12;8.55;;;7.05;;
72797;SDS011;61084;55.816;37.036;2022-07-10T05:18:40;15.63;;;7.30;;
72797;SDS011;61084;55.816;37.036;2022-07-10T05:21:06;9.98;;;7.65;;
72797;SDS011;61084;55.816;37.036;2022-07-10T05:23:36;12.30;;;7.72;;
72797;SDS011;61084;55.816;37.036;2022-07-10T05:26:03;11.00;;;8.60;;
72797;SDS011;61084;55.816;37.036;2022-07-10T05:28:28;11.55;;;7.85;;
72797;SDS011;61084;55.816;37.036;2022-07-10T05:30:54;9.13;;;7.15;;
72797;SDS011;61084;55.816;37.036;2022-07-10T05:33:20;9.88;;;7.97;;
72797;SDS011;61084;55.816;37.036;2022-07-10T05:35:46;7.97;;;7.00;;
72797;SDS011;61084;55.816;37.036;2022-07-10T05:38:12;11.43;;;7.22;;
72797;SDS011;61084;55.816;37.036;2022-07-10T05:40:38;9.57;;;7.95;;
72797;SDS011;61084;55.816;37.036;2022-07-10T05:43:03;11.32;;;7.60;;
72797;SDS011;61084;55.816;37.036;2022-07-10T05:45:29;9.05;;;6.55;;
72797;SDS011;61084;55.816;37.036;2022-07-10T05:47:55;10.63;;;6.30;;
72797;SDS011;61084;55.816;37.036;2022-07-10T05:50:22;8.27;;;6.90;;
72797;SDS011;61084;55.816;37.036;2022-07-10T05:52:48;9.48;;;7.60;;
72797;SDS011;61084;55.816;37.036;2022-07-10T05:55:13;10.68;;;7.95;;
72797;SDS011;61084;55.816;37.036;2022-07-10T05:57:40;9.05;;;6.65;;
72797;SDS011;61084;55.816;37.036;2022-07-10T06:00:06;8.38;;;6.05;;
72797;SDS011;61084;55.816;37.036;2022-07-10T06:02:37;11.18;;;7.20;;
72797;SDS011;61084;55.816;37.036;2022-07-10T06:05:03;9.68;;;7.47;;
72797;SDS011;61084;55.816;37.036;2022-07-10T06:07:30;9.25;;;7.53;;
72797;SDS011;61084;55.816;37.036;2022-07-10T06:09:56;9.93;;;7.95;;
72797;SDS011;61084;55.816;37.036;2022-07-10T06:12:21;11.43;;;7.68;;
72797;SDS011;61084;55.816;37.036;2022-07-10T06:14:47;10.60;;;7.45;;
72797;SDS011;61084;55.816;37.036;2022-07-10T06:17:13;9.32;;;7.80;;
72797;SDS011;61084;55.816;37.036;2022-07-10T06:19:39;10.95;;;7.97;;
72797;SDS011;61084;55.816;37.036;2022-07-10T06:22:05;12.57;;;8.45;;
72797;SDS011;61084;55.816;37.036;2022-07-10T06:24:49;11.68;;;7.40;;
72797;SDS011;61084;55.816;37.036;2022-07-10T06:27:15;10.27;;;8.38;;
72797;SDS011;61084;55.816;37.036;2022-07-10T06:29:41;10.95;;;8.13;;
72797;SDS011;61084;55.816;37.036;2022-07-10T06:32:06;11.18;;;8.52;;
72797;SDS011;61084;55.816;37.036;2022-07-10T06:36:58;9.70;;;7.05;;
72797;SDS011;61084;55.816;37.036;2022-07-10T06:39:24;13.20;;;7.68;;
72797;SDS011;61084;55.816;37.036;2022-07-10T06:41:50;10.93;;;7.72;;
72797;SDS011;61084;55.816;37.036;2022-07-10T06:44:15;9.90;;;8.32;;
72797;SDS011;61084;55.816;37.036;2022-07-10T06:46:41;10.45;;;8.52;;
72797;SDS011;61084;55.816;37.036;2022-07-10T06:49:07;10.93;;;8.05;;
72797;SDS011;61084;55.816;37.036;2022-07-10T06:51:34;9.68;;;7.90;;
72797;SDS011;61084;55.816;37.036;2022-07-10T06:54:00;9.55;;;7.55;;
72797;SDS011;61084;55.816;37.036;2022-07-10T06:56:25;12.95;;;8.75;;
72797;SDS011;61084;55.816;37.036;2022-07-10T06:58:52;10.35;;;8.20;;
72797;SDS011;61084;55.816;37.036;2022-07-10T07:01:18;10.63;;;9.05;;
72797;SDS011;61084;55.816;37.036;2022-07-10T07:03:44;10.93;;;9.07;;
72797;SDS011;61084;55.816;37.036;2022-07-10T07:06:09;8.48;;;7.57;;
72797;SDS011;61084;55.816;37.036;2022-07-10T07:11:02;14.52;;;8.73;;
72797;SDS011;61084;55.816;37.036;2022-07-10T07:13:28;11.73;;;8.70;;
72797;SDS011;61084;55.816;37.036;2022-07-10T07:15:54;13.77;;;8.05;;
72797;SDS011;61084;55.816;37.036;2022-07-10T07:18:25;12.00;;;7.78;;
72797;SDS011;61084;55.816;37.036;2022-07-10T07:20:58;14.38;;;9.38;;
72797;SDS011;61084;55.816;37.036;2022-07-10T07:23:43;13.82;;;8.85;;
72797;SDS011;61084;55.816;37.036;2022-07-10T07:26:09;14.13;;;9.27;;
72797;SDS011;61084;55.816;37.036;2022-07-10T07:28:35;12.50;;;9.60;;
72797;SDS011;61084;55.816;37.036;2022-07-10T07:31:00;12.20;;;9.70;;
72797;SDS011;61084;55.816;37.036;2022-07-10T07:33:26;12.18;;;9.38;;
72797;SDS011;61084;55.816;37.036;2022-07-10T07:35:52;13.77;;;9.50;;
72797;SDS011;61084;55.816;37.036;2022-07-10T07:38:18;12.70;;;8.82;;
72797;SDS011;61084;55.816;37.036;2022-07-10T07:40:44;13.43;;;9.77;;
72797;SDS011;61084;55.816;37.036;2022-07-10T07:43:10;12.00;;;9.25;;
72797;SDS011;61084;55.816;37.036;2022-07-10T07:45:35;15.93;;;9.48;;
72797;SDS011;61084;55.816;37.036;2022-07-10T07:48:01;16.98;;;10.10;;
72797;SDS011;61084;55.816;37.036;2022-07-10T07:52:54;15.60;;;9.75;;
72797;SDS011;61084;55.816;37.036;2022-07-10T07:57:46;14.32;;;9.77;;
72797;SDS011;61084;55.816;37.036;2022-07-10T08:00:14;11.07;;;7.70;;
72797;SDS011;61084;55.816;37.036;2022-07-10T08:02:43;10.63;;;9.07;;
72797;SDS011;61084;55.816;37.036;2022-07-10T08:05:09;13.20;;;8.70;;
72797;SDS011;61084;55.816;37.036;2022-07-10T08:07:42;16.25;;;9.65;;
72797;SDS011;61084;55.816;37.036;2022-07-10T08:10:11;11.80;;;9.00;;
72797;SDS011;61084;55.816;37.036;2022-07-10T08:12:38;13.55;;;9.23;;
72797;SDS011;61084;55.816;37.036;2022-07-10T08:15:08;15.13;;;9.07;;
72797;SDS011;61084;55.816;37.036;2022-07-10T08:17:37;12.65;;;7.82;;
72797;SDS011;61084;55.816;37.036;2022-07-10T08:22:31;17.13;;;8.43;;
72797;SDS011;61084;55.816;37.036;2022-07-10T08:24:57;17.42;;;8.95;;
72797;SDS011;61084;55.816;37.036;2022-07-10T08:27:23;24.52;;;10.00;;
72797;SDS011;61084;55.816;37.036;2022-07-10T08:29:50;14.45;;;8.73;;
72797;SDS011;61084;55.816;37.036;2022-07-10T08:32:16;12.80;;;8.35;;
72797;SDS011;61084;55.816;37.036;2022-07-10T08:34:41;14.00;;;9.05;;
72797;SDS011;61084;55.816;37.036;2022-07-10T08:37:07;12.25;;;8.52;;
72797;SDS011;61084;55.816;37.036;2022-07-10T08:39:33;11.35;;;8.63;;
72797;SDS011;61084;55.816;37.036;2022-07-10T08:44:24;12.45;;;7.53;;
72797;SDS011;61084;55.816;37.036;2022-07-10T08:46:51;12.40;;;7.55;;
72797;SDS011;61084;55.816;37.036;2022-07-10T08:49:17;15.15;;;8.25;;
72797;SDS011;61084;55.816;37.036;2022-07-10T08:54:29;14.90;;;7.55;;
72797;SDS011;61084;55.816;37.036;2022-07-10T08:56:56;13.15;;;9.05;;
72797;SDS011;61084;55.816;37.036;2022-07-10T08:59:23;14.95;;;9.10;;
72797;SDS011;61084;55.816;37.036;2022-07-10T09:01:49;10.05;;;8.73;;
72797;SDS011;61084;55.816;37.036;2022-07-10T09:04:18;14.10;;;9.45;;
72797;SDS011;61084;55.816;37.036;2022-07-10T09:06:48;13.68;;;9.55;;
72797;SDS011;61084;55.816;37.036;2022-07-10T09:09:16;17.13;;;10.05;;
72797;SDS011;61084;55.816;37.036;2022-07-10T09:11:42;14.77;;;9.98;;
72797;SDS011;61084;55.816;37.036;2022-07-10T09:16:37;13.48;;;8.73;;
72797;SDS011;61084;55.816;37.036;2022-07-10T09:19:26;12.40;;;8.77;;
72797;SDS011;61084;55.816;37.036;2022-07-10T09:22:08;11.20;;;9.27;;
72797;SDS011;61084;55.816;37.036;2022-07-10T09:24:44;17.15;;;9.40;;
72797;SDS011;61084;55.816;37.036;2022-07-10T09:27:11;12.93;;;8.75;;
72797;SDS011;61084;55.816;37.036;2022-07-10T09:32:12;13.27;;;10.05;;
72797;SDS011;61084;55.816;37.036;2022-07-10T09:39:55;17.67;;;10.45;;
72797;SDS011;61084;55.816;37.036;2022-07-10T09:42:25;13.93;;;10.30;;
72797;SDS011;61084;55.816;37.036;2022-07-10T09:47:42;16.10;;;10.38;;
72797;SDS011;61084;55.816;37.036;2022-07-10T09:52:57;19.10;;;10.10;;
72797;SDS011;61084;55.816;37.036;2022-07-10T09:55:25;14.07;;;9.10;;
72797;SDS011;61084;55.816;37.036;2022-07-10T10:00:25;15.65;;;8.90;;
72797;SDS011;61084;55.816;37.036;2022-07-10T10:02:59;19.10;;;8.05;;
72797;SDS011;61084;55.816;37.036;2022-07-10T10:05:28;11.52;;;8.90;;
72797;SDS011;61084;55.816;37.036;2022-07-10T10:08:01;9.80;;;8.75;;
72797;SDS011;61084;55.816;37.036;2022-07-10T10:10:34;12.25;;;9.30;;
72797;SDS011;61084;55.816;37.036;2022-07-10T10:13:03;13.93;;;9.95;;
72797;SDS011;61084;55.816;37.036;2022-07-10T10:15:34;13.40;;;8.55;;
72797;SDS011;61084;55.816;37.036;2022-07-10T10:18:00;11.18;;;8.35;;
72797;SDS011;61084;55.816;37.036;2022-07-10T10:20:28;11.32;;;9.50;;
72797;SDS011;61084;55.816;37.036;2022-07-10T10:23:15;14.55;;;8.68;;
72797;SDS011;61084;55.816;37.036;2022-07-10T10:28:15;11.95;;;7.93;;
72797;SDS011;61084;55.816;37.036;2022-07-10T10:30:43;15.93;;;8.40;;
72797;SDS011;61084;55.816;37.036;2022-07-10T10:36:00;14.70;;;7.35;;
72797;SDS011;61084;55.816;37.036;2022-07-10T10:52:17;13.57;;;7.28;;
72797;SDS011;61084;55.816;37.036;2022-07-10T10:59:56;7.40;;;5.35;;
72797;SDS011;61084;55.816;37.036;2022-07-10T11:02:30;8.18;;;5.00;;
72797;SDS011;61084;55.816;37.036;2022-07-10T11:07:59;5.05;;;4.53;;
72797;SDS011;61084;55.816;37.036;2022-07-10T11:10:31;6.65;;;5.38;;
72797;SDS011;61084;55.816;37.036;2022-07-10T11:12:57;5.88;;;5.28;;
72797;SDS011;61084;55.816;37.036;2022-07-10T11:15:24;7.80;;;4.95;;
72797;SDS011;61084;55.816;37.036;2022-07-10T11:17:50;6.55;;;5.25;;
72797;SDS011;61084;55.816;37.036;2022-07-10T11:20:16;10.77;;;5.60;;
72797;SDS011;61084;55.816;37.036;2022-07-10T11:22:45;6.80;;;5.30;;
72797;SDS011;61084;55.816;37.036;2022-07-10T11:28:06;6.72;;;5.80;;
72797;SDS011;61084;55.816;37.036;2022-07-10T11:30:50;8.52;;;4.95;;
72797;SDS011;61084;55.816;37.036;2022-07-10T11:35:46;8.40;;;5.50;;
72797;SDS011;61084;55.816;37.036;2022-07-10T11:38:21;6.95;;;4.93;;
72797;SDS011;61084;55.816;37.036;2022-07-10T11:40:48;7.82;;;4.80;;
72797;SDS011;61084;55.816;37.036;2022-07-10T11:43:14;6.85;;;5.20;;
72797;SDS011;61084;55.816;37.036;2022-07-10T11:45:43;8.88;;;5.65;;
72797;SDS011;61084;55.816;37.036;2022-07-10T11:48:21;9.70;;;5.20;;
72797;SDS011;61084;55.816;37.036;2022-07-10T11:50:48;7.78;;;5.18;;
72797;SDS011;61084;55.816;37.036;2022-07-10T11:53:21;5.53;;;4.68;;
72797;SDS011;61084;55.816;37.036;2022-07-10T11:55:48;9.02;;;5.00;;
72797;SDS011;61084;55.816;37.036;2022-07-10T11:58:18;7.63;;;5.88;;
72797;SDS011;61084;55.816;37.036;2022-07-10T12:00:58;6.60;;;5.00;;
72797;SDS011;61084;55.816;37.036;2022-07-10T12:03:27;13.10;;;5.15;;
72797;SDS011;61084;55.816;37.036;2022-07-10T12:05:53;10.10;;;5.00;;
72797;SDS011;61084;55.816;37.036;2022-07-10T12:08:19;5.57;;;4.60;;
72797;SDS011;61084;55.816;37.036;2022-07-10T12:10:45;5.75;;;4.45;;
72797;SDS011;61084;55.816;37.036;2022-07-10T12:13:11;8.50;;;4.43;;
72797;SDS011;61084;55.816;37.036;2022-07-10T12:15:39;8.18;;;4.00;;
72797;SDS011;61084;55.816;37.036;2022-07-10T12:18:07;6.15;;;3.75;;
72797;SDS011;61084;55.816;37.036;2022-07-10T12:20:34;4.68;;;3.45;;
72797;SDS011;61084;55.816;37.036;2022-07-10T12:23:03;6.35;;;3.53;;
72797;SDS011;61084;55.816;37.036;2022-07-10T12:25:29;3.58;;;3.22;;
72797;SDS011;61084;55.816;37.036;2022-07-10T12:27:56;9.70;;;3.85;;
72797;SDS011;61084;55.816;37.036;2022-07-10T12:30:39;5.93;;;3.75;;
72797;SDS011;61084;55.816;37.036;2022-07-10T12:33:12;5.10;;;3.60;;
72797;SDS011;61084;55.816;37.036;2022-07-10T12:35:46;5.53;;;3.78;;
72797;SDS011;61084;55.816;37.036;2022-07-10T12:38:26;5.88;;;3.80;;
72797;SDS011;61084;55.816;37.036;2022-07-10T12:41:12;6.68;;;3.63;;
72797;SDS011;61084;55.816;37.036;2022-07-10T12:43:39;5.45;;;3.60;;
72797;SDS011;61084;55.816;37.036;2022-07-10T12:46:08;7.05;;;4.07;;
72797;SDS011;61084;55.816;37.036;2022-07-10T12:48:35;8.05;;;3.70;;
72797;SDS011;61084;55.816;37.036;2022-07-10T12:51:46;5.72;;;3.45;;
72797;SDS011;61084;55.816;37.036;2022-07-10T12:53:51;5.57;;;4.13;;
72797;SDS011;61084;55.816;37.036;2022-07-10T12:59:21;8.48;;;3.55;;
72797;SDS011;61084;55.816;37.036;2022-07-10T13:01:47;7.97;;;3.95;;
72797;SDS011;61084;55.816;37.036;2022-07-10T13:04:13;8.80;;;3.30;;
72797;SDS011;61084;55.816;37.036;2022-07-10T13:06:39;8.57;;;4.53;;
72797;SDS011;61084;55.816;37.036;2022-07-10T13:09:25;8.30;;;4.00;;
72797;SDS011;61084;55.816;37.036;2022-07-10T13:11:51;6.18;;;4.03;;
72797;SDS011;61084;55.816;37.036;2022-07-10T13:14:21;7.13;;;3.92;;
72797;SDS011;61084;55.816;37.036;2022-07-10T13:16:48;6.53;;;3.60;;
72797;SDS011;61084;55.816;37.036;2022-07-10T13:19:14;5.63;;;3.67;;
72797;SDS011;61084;55.816;37.036;2022-07-10T13:21:40;7.22;;;3.60;;
72797;SDS011;61084;55.816;37.036;2022-07-10T13:24:06;4.95;;;3.90;;
72797;SDS011;61084;55.816;37.036;2022-07-10T13:26:32;9.02;;;4.75;;
72797;SDS011;61084;55.816;37.036;2022-07-10T13:28:58;9.05;;;3.15;;
72797;SDS011;61084;55.816;37.036;2022-07-10T13:31:24;4.68;;;3.60;;
72797;SDS011;61084;55.816;37.036;2022-07-10T13:33:50;7.20;;;4.40;;
72797;SDS011;61084;55.816;37.036;2022-07-10T13:36:16;6.35;;;3.92;;
72797;SDS011;61084;55.816;37.036;2022-07-10T13:38:42;7.22;;;3.92;;
72797;SDS011;61084;55.816;37.036;2022-07-10T13:41:08;5.32;;;4.10;;
72797;SDS011;61084;55.816;37.036;2022-07-10T13:43:34;6.20;;;3.53;;
72797;SDS011;61084;55.816;37.036;2022-07-10T13:46:00;8.18;;;4.22;;
72797;SDS011;61084;55.816;37.036;2022-07-10T13:48:27;5.68;;;3.80;;
72797;SDS011;61084;55.816;37.036;2022-07-10T13:50:54;5.97;;;4.10;;
72797;SDS011;61084;55.816;37.036;2022-07-10T13:53:19;5.88;;;4.32;;
72797;SDS011;61084;55.816;37.036;2022-07-10T13:55:46;7.30;;;4.65;;
72797;SDS011;61084;55.816;37.036;2022-07-10T13:58:12;10.35;;;4.10;;
72797;SDS011;61084;55.816;37.036;2022-07-10T14:00:39;6.13;;;3.80;;
72797;SDS011;61084;55.816;37.036;2022-07-10T14:03:05;8.73;;;4.13;;
72797;SDS011;61084;55.816;37.036;2022-07-10T14:05:33;7.97;;;4.15;;
72797;SDS011;61084;55.816;37.036;2022-07-10T14:07:59;7.53;;;3.75;;
72797;SDS011;61084;55.816;37.036;2022-07-10T14:10:26;11.00;;;4.40;;
72797;SDS011;61084;55.816;37.036;2022-07-10T14:12:52;6.35;;;4.22;;
72797;SDS011;61084;55.816;37.036;2022-07-10T14:15:18;21.23;;;13.63;;
72797;SDS011;61084;55.816;37.036;2022-07-10T14:17:44;9.65;;;5.72;;
72797;SDS011;61084;55.816;37.036;2022-07-10T14:20:10;8.38;;;6.47;;
72797;SDS011;61084;55.816;37.036;2022-07-10T14:22:36;11.18;;;8.07;;
72797;SDS011;61084;55.816;37.036;2022-07-10T14:25:03;5.88;;;4.72;;
72797;SDS011;61084;55.816;37.036;2022-07-10T14:27:34;4.43;;;3.90;;
72797;SDS011;61084;55.816;37.036;2022-07-10T14:30:00;6.20;;;4.80;;
72797;SDS011;61084;55.816;37.036;2022-07-10T14:32:25;9.82;;;5.25;;
72797;SDS011;61084;55.816;37.036;2022-07-10T14:34:51;8.13;;;4.22;;
72797;SDS011;61084;55.816;37.036;2022-07-10T14:37:17;9.00;;;5.65;;
72797;SDS011;61084;55.816;37.036;2022-07-10T14:39:43;9.05;;;6.80;;
72797;SDS011;61084;55.816;37.036;2022-07-10T14:42:11;9.05;;;7.13;;
72797;SDS011;61084;55.816;37.036;2022-07-10T14:44:37;13.30;;;8.02;;
72797;SDS011;61084;55.816;37.036;2022-07-10T14:47:03;9.50;;;4.68;;
72797;SDS011;61084;55.816;37.036;2022-07-10T14:49:29;9.93;;;4.57;;
72797;SDS011;61084;55.816;37.036;2022-07-10T14:51:55;10.15;;;3.08;;
72797;SDS011;61084;55.816;37.036;2022-07-10T14:54:21;10.48;;;2.88;;
72797;SDS011;61084;55.816;37.036;2022-07-10T14:56:47;9.10;;;3.03;;
72797;SDS011;61084;55.816;37.036;2022-07-10T14:59:13;13.10;;;3.47;;
72797;SDS011;61084;55.816;37.036;2022-07-10T15:01:39;12.15;;;3.88;;
72797;SDS011;61084;55.816;37.036;2022-07-10T15:04:08;9.68;;;2.92;;
72797;SDS011;61084;55.816;37.036;2022-07-10T15:06:34;8.68;;;3.03;;
72797;SDS011;61084;55.816;37.036;2022-07-10T15:11:26;5.57;;;2.13;;
72797;SDS011;61084;55.816;37.036;2022-07-10T15:16:27;4.50;;;2.13;;
72797;SDS011;61084;55.816;37.036;2022-07-10T15:18:53;5.30;;;2.40;;
72797;SDS011;61084;55.816;37.036;2022-07-10T15:21:20;7.63;;;2.17;;
72797;SDS011;61084;55.816;37.036;2022-07-10T15:26:13;7.38;;;2.88;;
72797;SDS011;61084;55.816;37.036;2022-07-10T15:28:40;3.80;;;2.70;;
72797;SDS011;61084;55.816;37.036;2022-07-10T15:31:05;6.85;;;3.00;;
72797;SDS011;61084;55.816;37.036;2022-07-10T15:33:32;6.30;;;2.67;;
72797;SDS011;61084;55.816;37.036;2022-07-10T15:35:58;5.45;;;2.22;;
72797;SDS011;61084;55.816;37.036;2022-07-10T15:38:24;8.02;;;2.55;;
72797;SDS011;61084;55.816;37.036;2022-07-10T15:43:16;4.60;;;2.42;;
72797;SDS011;61084;55.816;37.036;2022-07-10T15:45:42;3.95;;;2.00;;
72797;SDS011;61084;55.816;37.036;2022-07-10T15:48:07;7.50;;;2.25;;
72797;SDS011;61084;55.816;37.036;2022-07-10T15:50:33;6.88;;;2.22;;
72797;SDS011;61084;55.816;37.036;2022-07-10T15:52:59;7.28;;;2.75;;
72797;SDS011;61084;55.816;37.036;2022-07-10T15:55:25;10.38;;;2.85;;
72797;SDS011;61084;55.816;37.036;2022-07-10T15:57:51;7.90;;;2.80;;
72797;SDS011;61084;55.816;37.036;2022-07-10T16:00:16;7.30;;;2.42;;
72797;SDS011;61084;55.816;37.036;2022-07-10T16:02:42;5.55;;;2.45;;
72797;SDS011;61084;55.816;37.036;2022-07-10T16:05:08;6.32;;;2.80;;